sensor_id;sensor_type;location;lat;lon;timestamp;temperature;humidity
52297;DHT22;38244;51.046;17.038;2022-07-23T00:02:00;21.64;61.10
52297;DHT22;38244;51.046;17.038;2022-07-23T00:04:26;21.61;61.27
52297;DHT22;38244;51.046;17.038;2022-07-23T00:06:53;21.55;61.55
52297;DHT22;38244;51.046;17.038;2022-07-23T00:09:19;21.51;61.49
52297;DHT22;38244;51.046;17.038;2022-07-23T00:11:45;21.47;61.33
52297;DHT22;38244;51.046;17.038;2022-07-23T00:14:11;21.41;61.63
52297;DHT22;38244;51.046;17.038;2022-07-23T00:16:40;21.36;61.73
52297;DHT22;38244;51.046;17.038;2022-07-23T00:19:07;21.33;61.45
52297;DHT22;38244;51.046;17.038;2022-07-23T00:21:33;21.24;61.66
52297;DHT22;38244;51.046;17.038;2022-07-23T00:23:59;21.20;62.01
52297;DHT22;38244;51.046;17.038;2022-07-23T00:26:25;21.16;62.28
52297;DHT22;38244;51.046;17.038;2022-07-23T00:28:51;21.11;62.52
52297;DHT22;38244;51.046;17.038;2022-07-23T00:31:18;21.91;61.47
52297;DHT22;38244;51.046;17.038;2022-07-23T00:33:44;23.35;57.60
52297;DHT22;38244;51.046;17.038;2022-07-23T00:36:10;23.65;55.57
52297;DHT22;38244;51.046;17.038;2022-07-23T00:38:36;23.11;56.53
52297;DHT22;38244;51.046;17.038;2022-07-23T00:41:03;22.65;57.89
52297;DHT22;38244;51.046;17.038;2022-07-23T00:43:29;22.35;58.62
52297;DHT22;38244;51.046;17.038;2022-07-23T00:46:22;22.12;59.53
52297;DHT22;38244;51.046;17.038;2022-07-23T00:48:49;21.92;59.94
52297;DHT22;38244;51.046;17.038;2022-07-23T00:51:16;21.76;60.58
52297;DHT22;38244;51.046;17.038;2022-07-23T00:53:43;21.61;61.17
52297;DHT22;38244;51.046;17.038;2022-07-23T00:56:10;21.51;61.49
52297;DHT22;38244;51.046;17.038;2022-07-23T00:58:38;21.43;61.78
52297;DHT22;38244;51.046;17.038;2022-07-23T01:01:05;21.31;62.19
52297;DHT22;38244;51.046;17.038;2022-07-23T01:03:31;21.23;62.50
52297;DHT22;38244;51.046;17.038;2022-07-23T01:05:58;21.93;61.84
52297;DHT22;38244;51.046;17.038;2022-07-23T01:08:24;23.31;58.27
52297;DHT22;38244;51.046;17.038;2022-07-23T01:10:51;23.66;56.13
52297;DHT22;38244;51.046;17.038;2022-07-23T01:13:18;23.10;56.94
52297;DHT22;38244;51.046;17.038;2022-07-23T01:16:24;22.64;58.25
52297;DHT22;38244;51.046;17.038;2022-07-23T01:18:50;22.23;59.55
52297;DHT22;38244;51.046;17.038;2022-07-23T01:21:18;22.02;59.87
52297;DHT22;38244;51.046;17.038;2022-07-23T01:23:44;21.80;60.32
52297;DHT22;38244;51.046;17.038;2022-07-23T01:26:11;21.66;60.92
52297;DHT22;38244;51.046;17.038;2022-07-23T01:28:37;21.52;61.13
52297;DHT22;38244;51.046;17.038;2022-07-23T01:31:03;21.43;61.76
52297;DHT22;38244;51.046;17.038;2022-07-23T01:33:29;21.26;61.75
52297;DHT22;38244;51.046;17.038;2022-07-23T01:35:56;21.16;62.34
52297;DHT22;38244;51.046;17.038;2022-07-23T01:38:22;21.92;61.01
52297;DHT22;38244;51.046;17.038;2022-07-23T01:40:48;23.38;57.36
52297;DHT22;38244;51.046;17.038;2022-07-23T01:43:14;23.59;55.89
52297;DHT22;38244;51.046;17.038;2022-07-23T01:46:02;23.00;56.94
52297;DHT22;38244;51.046;17.038;2022-07-23T01:48:29;22.42;58.38
52297;DHT22;38244;51.046;17.038;2022-07-23T01:50:55;22.10;59.40
52297;DHT22;38244;51.046;17.038;2022-07-23T01:53:21;21.85;60.21
52297;DHT22;38244;51.046;17.038;2022-07-23T01:56:08;21.65;60.85
52297;DHT22;38244;51.046;17.038;2022-07-23T01:58:35;21.47;61.31
52297;DHT22;38244;51.046;17.038;2022-07-23T02:01:01;21.36;61.93
52297;DHT22;38244;51.046;17.038;2022-07-23T02:03:27;21.19;62.30
52297;DHT22;38244;51.046;17.038;2022-07-23T02:05:53;21.09;62.83
52297;DHT22;38244;51.046;17.038;2022-07-23T02:08:20;21.93;61.88
52297;DHT22;38244;51.046;17.038;2022-07-23T02:10:46;23.31;58.17
52297;DHT22;38244;51.046;17.038;2022-07-23T02:13:12;23.56;56.25
52297;DHT22;38244;51.046;17.038;2022-07-23T02:15:39;22.99;57.17
52297;DHT22;38244;51.046;17.038;2022-07-23T02:18:06;22.47;58.29
52297;DHT22;38244;51.046;17.038;2022-07-23T02:20:34;22.16;59.38
52297;DHT22;38244;51.046;17.038;2022-07-23T02:23:00;21.92;60.04
52297;DHT22;38244;51.046;17.038;2022-07-23T02:25:44;21.69;60.59
52297;DHT22;38244;51.046;17.038;2022-07-23T02:28:10;21.52;61.12
52297;DHT22;38244;51.046;17.038;2022-07-23T02:30:37;21.38;61.75
52297;DHT22;38244;51.046;17.038;2022-07-23T02:33:04;21.26;62.34
52297;DHT22;38244;51.046;17.038;2022-07-23T02:35:30;21.13;62.84
52297;DHT22;38244;51.046;17.038;2022-07-23T02:37:56;21.97;61.85
52297;DHT22;38244;51.046;17.038;2022-07-23T02:40:22;23.25;58.48
52297;DHT22;38244;51.046;17.038;2022-07-23T02:42:49;23.48;56.73
52297;DHT22;38244;51.046;17.038;2022-07-23T02:45:15;22.89;57.72
52297;DHT22;38244;51.046;17.038;2022-07-23T02:47:41;22.44;58.78
52297;DHT22;38244;51.046;17.038;2022-07-23T02:50:08;22.12;59.69
52297;DHT22;38244;51.046;17.038;2022-07-23T02:52:34;21.91;60.54
52297;DHT22;38244;51.046;17.038;2022-07-23T02:55:04;21.75;60.72
52297;DHT22;38244;51.046;17.038;2022-07-23T02:57:31;21.61;61.43
52297;DHT22;38244;51.046;17.038;2022-07-23T02:59:57;21.47;61.77
52297;DHT22;38244;51.046;17.038;2022-07-23T03:02:23;21.36;62.07
52297;DHT22;38244;51.046;17.038;2022-07-23T03:04:50;21.27;62.42
52297;DHT22;38244;51.046;17.038;2022-07-23T03:07:18;22.06;61.55
52297;DHT22;38244;51.046;17.038;2022-07-23T03:09:44;23.40;58.31
52297;DHT22;38244;51.046;17.038;2022-07-23T03:12:11;23.69;56.38
52297;DHT22;38244;51.046;17.038;2022-07-23T03:14:37;23.17;57.19
52297;DHT22;38244;51.046;17.038;2022-07-23T03:17:03;22.72;58.18
52297;DHT22;38244;51.046;17.038;2022-07-23T03:19:29;22.41;58.66
52297;DHT22;38244;51.046;17.038;2022-07-23T03:21:56;22.20;59.23
52297;DHT22;38244;51.046;17.038;2022-07-23T03:24:24;22.07;59.61
52297;DHT22;38244;51.046;17.038;2022-07-23T03:26:52;21.96;59.89
52297;DHT22;38244;51.046;17.038;2022-07-23T03:29:18;21.92;60.47
52297;DHT22;38244;51.046;17.038;2022-07-23T03:31:45;21.80;60.83
52297;DHT22;38244;51.046;17.038;2022-07-23T03:34:11;21.72;61.20
52297;DHT22;38244;51.046;17.038;2022-07-23T03:36:38;21.69;61.45
52297;DHT22;38244;51.046;17.038;2022-07-23T03:39:05;21.72;61.48
52297;DHT22;38244;51.046;17.038;2022-07-23T03:41:31;21.78;61.59
52297;DHT22;38244;51.046;17.038;2022-07-23T03:43:57;21.85;61.36
52297;DHT22;38244;51.046;17.038;2022-07-23T03:46:23;21.92;61.22
52297;DHT22;38244;51.046;17.038;2022-07-23T03:48:52;22.00;60.84
52297;DHT22;38244;51.046;17.038;2022-07-23T03:51:24;22.16;60.58
52297;DHT22;38244;51.046;17.038;2022-07-23T03:53:51;22.30;60.26
52297;DHT22;38244;51.046;17.038;2022-07-23T03:56:17;22.51;59.92
52297;DHT22;38244;51.046;17.038;2022-07-23T03:58:44;22.64;59.87
52297;DHT22;38244;51.046;17.038;2022-07-23T04:01:11;22.78;59.76
52297;DHT22;38244;51.046;17.038;2022-07-23T04:03:38;23.03;59.40
52297;DHT22;38244;51.046;17.038;2022-07-23T04:06:05;23.49;58.46
52297;DHT22;38244;51.046;17.038;2022-07-23T04:08:34;24.03;56.94
52297;DHT22;38244;51.046;17.038;2022-07-23T04:11:01;24.55;55.63
52297;DHT22;38244;51.046;17.038;2022-07-23T04:13:27;24.98;54.46
52297;DHT22;38244;51.046;17.038;2022-07-23T04:15:55;25.36;53.20
52297;DHT22;38244;51.046;17.038;2022-07-23T04:18:21;25.76;52.37
52297;DHT22;38244;51.046;17.038;2022-07-23T04:20:51;26.02;51.77
52297;DHT22;38244;51.046;17.038;2022-07-23T04:23:18;26.23;50.96
52297;DHT22;38244;51.046;17.038;2022-07-23T04:25:44;26.53;50.23
52297;DHT22;38244;51.046;17.038;2022-07-23T04:28:10;26.88;49.60
52297;DHT22;38244;51.046;17.038;2022-07-23T04:30:36;27.26;49.02
52297;DHT22;38244;51.046;17.038;2022-07-23T04:33:03;27.61;48.24
52297;DHT22;38244;51.046;17.038;2022-07-23T04:35:34;27.85;47.49
52297;DHT22;38244;51.046;17.038;2022-07-23T04:38:01;27.96;47.26
52297;DHT22;38244;51.046;17.038;2022-07-23T04:40:27;28.02;47.41
52297;DHT22;38244;51.046;17.038;2022-07-23T04:42:56;27.99;47.12
52297;DHT22;38244;51.046;17.038;2022-07-23T04:45:22;27.98;47.19
52297;DHT22;38244;51.046;17.038;2022-07-23T04:47:50;28.01;46.99
52297;DHT22;38244;51.046;17.038;2022-07-23T04:50:16;28.03;47.14
52297;DHT22;38244;51.046;17.038;2022-07-23T04:52:45;28.19;46.78
52297;DHT22;38244;51.046;17.038;2022-07-23T04:55:11;28.57;46.36
52297;DHT22;38244;51.046;17.038;2022-07-23T04:57:37;29.07;45.13
52297;DHT22;38244;51.046;17.038;2022-07-23T05:00:04;29.57;43.82
52297;DHT22;38244;51.046;17.038;2022-07-23T05:02:30;29.79;43.23
52297;DHT22;38244;51.046;17.038;2022-07-23T05:04:57;29.81;42.90
52297;DHT22;38244;51.046;17.038;2022-07-23T05:07:23;29.59;43.13
52297;DHT22;38244;51.046;17.038;2022-07-23T05:09:50;29.33;43.25
52297;DHT22;38244;51.046;17.038;2022-07-23T05:12:16;28.90;43.78
52297;DHT22;38244;51.046;17.038;2022-07-23T05:14:42;28.46;44.53
52297;DHT22;38244;51.046;17.038;2022-07-23T05:17:09;28.02;45.36
52297;DHT22;38244;51.046;17.038;2022-07-23T05:19:35;27.60;46.33
52297;DHT22;38244;51.046;17.038;2022-07-23T05:22:02;27.20;47.20
52297;DHT22;38244;51.046;17.038;2022-07-23T05:24:28;26.83;48.16
52297;DHT22;38244;51.046;17.038;2022-07-23T05:26:54;26.58;48.81
52297;DHT22;38244;51.046;17.038;2022-07-23T05:29:21;26.46;49.59
52297;DHT22;38244;51.046;17.038;2022-07-23T05:31:47;26.43;49.61
52297;DHT22;38244;51.046;17.038;2022-07-23T05:34:19;26.49;49.52
52297;DHT22;38244;51.046;17.038;2022-07-23T05:36:45;26.43;49.52
52297;DHT22;38244;51.046;17.038;2022-07-23T05:39:12;26.42;49.49
52297;DHT22;38244;51.046;17.038;2022-07-23T05:41:38;26.32;49.77
52297;DHT22;38244;51.046;17.038;2022-07-23T05:44:04;26.19;50.16
52297;DHT22;38244;51.046;17.038;2022-07-23T05:46:33;26.12;50.34
52297;DHT22;38244;51.046;17.038;2022-07-23T05:48:59;26.05;50.43
52297;DHT22;38244;51.046;17.038;2022-07-23T05:51:25;26.05;50.49
52297;DHT22;38244;51.046;17.038;2022-07-23T05:53:52;26.05;50.30
52297;DHT22;38244;51.046;17.038;2022-07-23T05:56:19;26.04;50.27
52297;DHT22;38244;51.046;17.038;2022-07-23T05:58:45;26.05;50.48
52297;DHT22;38244;51.046;17.038;2022-07-23T06:01:11;26.13;50.33
52297;DHT22;38244;51.046;17.038;2022-07-23T06:03:38;26.33;50.34
52297;DHT22;38244;51.046;17.038;2022-07-23T06:06:05;26.71;49.48
52297;DHT22;38244;51.046;17.038;2022-07-23T06:08:32;27.29;48.73
52297;DHT22;38244;51.046;17.038;2022-07-23T06:10:58;27.98;47.44
52297;DHT22;38244;51.046;17.038;2022-07-23T06:13:24;28.67;46.09
52297;DHT22;38244;51.046;17.038;2022-07-23T06:15:50;29.03;44.21
52297;DHT22;38244;51.046;17.038;2022-07-23T06:18:17;28.89;44.37
52297;DHT22;38244;51.046;17.038;2022-07-23T06:20:43;28.78;44.50
52297;DHT22;38244;51.046;17.038;2022-07-23T06:23:10;28.75;44.81
52297;DHT22;38244;51.046;17.038;2022-07-23T06:25:38;28.77;44.52
52297;DHT22;38244;51.046;17.038;2022-07-23T06:28:05;28.83;44.58
52297;DHT22;38244;51.046;17.038;2022-07-23T06:30:31;28.92;44.40
52297;DHT22;38244;51.046;17.038;2022-07-23T06:32:57;29.07;44.14
52297;DHT22;38244;51.046;17.038;2022-07-23T06:35:24;29.26;44.21
52297;DHT22;38244;51.046;17.038;2022-07-23T06:37:50;29.42;43.64
52297;DHT22;38244;51.046;17.038;2022-07-23T06:40:16;29.52;43.47
52297;DHT22;38244;51.046;17.038;2022-07-23T06:42:42;29.54;43.37
52297;DHT22;38244;51.046;17.038;2022-07-23T06:45:09;29.64;43.05
52297;DHT22;38244;51.046;17.038;2022-07-23T06:47:35;29.77;43.08
52297;DHT22;38244;51.046;17.038;2022-07-23T06:50:02;29.91;42.89
52297;DHT22;38244;51.046;17.038;2022-07-23T06:52:28;30.09;42.36
52297;DHT22;38244;51.046;17.038;2022-07-23T06:54:54;30.27;42.32
52297;DHT22;38244;51.046;17.038;2022-07-23T06:57:21;30.52;41.94
52297;DHT22;38244;51.046;17.038;2022-07-23T06:59:47;30.72;41.36
52297;DHT22;38244;51.046;17.038;2022-07-23T07:02:13;30.91;41.12
52297;DHT22;38244;51.046;17.038;2022-07-23T07:04:39;31.01;40.73
52297;DHT22;38244;51.046;17.038;2022-07-23T07:07:06;31.01;40.72
52297;DHT22;38244;51.046;17.038;2022-07-23T07:09:32;30.96;40.61
52297;DHT22;38244;51.046;17.038;2022-07-23T07:11:58;30.73;41.10
52297;DHT22;38244;51.046;17.038;2022-07-23T07:14:24;30.58;41.49
52297;DHT22;38244;51.046;17.038;2022-07-23T07:16:50;30.54;41.40
52297;DHT22;38244;51.046;17.038;2022-07-23T07:19:17;30.44;41.66
52297;DHT22;38244;51.046;17.038;2022-07-23T07:21:43;30.39;41.90
52297;DHT22;38244;51.046;17.038;2022-07-23T07:24:09;30.45;41.89
52297;DHT22;38244;51.046;17.038;2022-07-23T07:26:35;30.68;41.73
52297;DHT22;38244;51.046;17.038;2022-07-23T07:29:02;31.13;41.08
52297;DHT22;38244;51.046;17.038;2022-07-23T07:31:29;31.56;40.42
52297;DHT22;38244;51.046;17.038;2022-07-23T07:33:56;32.04;39.52
52297;DHT22;38244;51.046;17.038;2022-07-23T07:36:25;32.41;38.85
52297;DHT22;38244;51.046;17.038;2022-07-23T07:38:52;32.70;38.27
52297;DHT22;38244;51.046;17.038;2022-07-23T07:41:18;33.15;38.09
52297;DHT22;38244;51.046;17.038;2022-07-23T07:43:46;33.49;36.81
52297;DHT22;38244;51.046;17.038;2022-07-23T07:46:12;33.69;36.55
52297;DHT22;38244;51.046;17.038;2022-07-23T07:48:39;34.00;35.96
52297;DHT22;38244;51.046;17.038;2022-07-23T07:51:05;34.03;35.55
52297;DHT22;38244;51.046;17.038;2022-07-23T07:53:31;34.01;35.52
52297;DHT22;38244;51.046;17.038;2022-07-23T07:55:58;34.11;35.11
52297;DHT22;38244;51.046;17.038;2022-07-23T07:58:24;34.25;35.23
52297;DHT22;38244;51.046;17.038;2022-07-23T08:00:50;34.34;34.65
52297;DHT22;38244;51.046;17.038;2022-07-23T08:03:17;34.36;34.66
52297;DHT22;38244;51.046;17.038;2022-07-23T08:05:43;34.24;34.94
52297;DHT22;38244;51.046;17.038;2022-07-23T08:08:09;34.08;34.94
52297;DHT22;38244;51.046;17.038;2022-07-23T08:10:37;33.94;35.32
52297;DHT22;38244;51.046;17.038;2022-07-23T08:13:04;33.84;35.01
52297;DHT22;38244;51.046;17.038;2022-07-23T08:15:30;33.53;35.48
52297;DHT22;38244;51.046;17.038;2022-07-23T08:18:12;33.38;35.76
52297;DHT22;38244;51.046;17.038;2022-07-23T08:20:37;33.25;36.09
52297;DHT22;38244;51.046;17.038;2022-07-23T08:23:06;33.21;36.30
52297;DHT22;38244;51.046;17.038;2022-07-23T08:25:36;33.35;36.31
52297;DHT22;38244;51.046;17.038;2022-07-23T08:28:05;33.79;35.74
52297;DHT22;38244;51.046;17.038;2022-07-23T08:30:33;34.42;34.76
52297;DHT22;38244;51.046;17.038;2022-07-23T08:33:09;34.91;33.74
52297;DHT22;38244;51.046;17.038;2022-07-23T08:35:45;35.25;33.49
52297;DHT22;38244;51.046;17.038;2022-07-23T08:38:20;35.48;33.06
52297;DHT22;38244;51.046;17.038;2022-07-23T08:40:51;35.97;32.72
52297;DHT22;38244;51.046;17.038;2022-07-23T08:43:23;36.46;32.01
52297;DHT22;38244;51.046;17.038;2022-07-23T09:06:17;39.39;27.38
52297;DHT22;38244;51.046;17.038;2022-07-23T09:08:44;38.85;28.23
52297;DHT22;38244;51.046;17.038;2022-07-23T09:11:16;38.46;28.64
52297;DHT22;38244;51.046;17.038;2022-07-23T09:13:53;38.08;29.16
52297;DHT22;38244;51.046;17.038;2022-07-23T09:16:26;37.85;29.68
52297;DHT22;38244;51.046;17.038;2022-07-23T09:18:58;37.77;29.84
52297;DHT22;38244;51.046;17.038;2022-07-23T09:24:04;37.66;29.65
52297;DHT22;38244;51.046;17.038;2022-07-23T09:26:40;37.70;29.40
52297;DHT22;38244;51.046;17.038;2022-07-23T09:29:24;37.49;29.37
52297;DHT22;38244;51.046;17.038;2022-07-23T09:31:59;37.00;29.76
52297;DHT22;38244;51.046;17.038;2022-07-23T09:36:58;36.15;30.90
52297;DHT22;38244;51.046;17.038;2022-07-23T09:39:33;35.86;31.34
52297;DHT22;38244;51.046;17.038;2022-07-23T09:44:26;35.32;32.06
52297;DHT22;38244;51.046;17.038;2022-07-23T09:46:59;35.31;32.07
52297;DHT22;38244;51.046;17.038;2022-07-23T09:49:26;35.38;32.02
52297;DHT22;38244;51.046;17.038;2022-07-23T09:54:37;35.91;31.48
52297;DHT22;38244;51.046;17.038;2022-07-23T09:57:10;36.07;30.96
52297;DHT22;38244;51.046;17.038;2022-07-23T10:02:28;35.83;31.80
52297;DHT22;38244;51.046;17.038;2022-07-23T10:04:55;35.69;31.96
52297;DHT22;38244;51.046;17.038;2022-07-23T10:07:23;35.53;32.43
52297;DHT22;38244;51.046;17.038;2022-07-23T10:09:51;35.29;32.73
52297;DHT22;38244;51.046;17.038;2022-07-23T10:12:19;35.00;33.12
52297;DHT22;38244;51.046;17.038;2022-07-23T10:14:59;34.66;33.86
52297;DHT22;38244;51.046;17.038;2022-07-23T10:17:27;34.27;34.59
52297;DHT22;38244;51.046;17.038;2022-07-23T10:19:54;33.94;35.12
52297;DHT22;38244;51.046;17.038;2022-07-23T10:22:34;33.60;35.55
52297;DHT22;38244;51.046;17.038;2022-07-23T10:28:36;33.00;36.82
52297;DHT22;38244;51.046;17.038;2022-07-23T10:36:44;31.89;38.61
52297;DHT22;38244;51.046;17.038;2022-07-23T10:39:29;31.44;39.32
52297;DHT22;38244;51.046;17.038;2022-07-23T10:42:15;31.09;40.68
52297;DHT22;38244;51.046;17.038;2022-07-23T10:44:47;30.72;41.79
52297;DHT22;38244;51.046;17.038;2022-07-23T10:52:21;29.83;46.90
52297;DHT22;38244;51.046;17.038;2022-07-23T11:02:45;28.41;51.80
52297;DHT22;38244;51.046;17.038;2022-07-23T11:05:22;28.05;52.96
52297;DHT22;38244;51.046;17.038;2022-07-23T11:13:44;27.12;56.01
52297;DHT22;38244;51.046;17.038;2022-07-23T11:18:55;26.73;58.23
52297;DHT22;38244;51.046;17.038;2022-07-23T11:32:27;25.87;61.98
52297;DHT22;38244;51.046;17.038;2022-07-23T11:34:52;25.69;62.64
52297;DHT22;38244;51.046;17.038;2022-07-23T11:37:39;26.28;61.34
52297;DHT22;38244;51.046;17.038;2022-07-23T11:40:10;27.05;58.80
52297;DHT22;38244;51.046;17.038;2022-07-23T11:42:50;26.71;60.77
52297;DHT22;38244;51.046;17.038;2022-07-23T11:45:08;26.23;62.84
52297;DHT22;38244;51.046;17.038;2022-07-23T11:47:35;26.58;61.72
52297;DHT22;38244;51.046;17.038;2022-07-23T11:50:04;27.30;59.62
52297;DHT22;38244;51.046;17.038;2022-07-23T11:52:30;27.01;59.81
52297;DHT22;38244;51.046;17.038;2022-07-23T11:55:07;26.54;61.60
52297;DHT22;38244;51.046;17.038;2022-07-23T11:57:39;26.31;62.41
52297;DHT22;38244;51.046;17.038;2022-07-23T12:00:16;26.92;61.04
52297;DHT22;38244;51.046;17.038;2022-07-23T12:05:16;28.36;55.47
52297;DHT22;38244;51.046;17.038;2022-07-23T12:07:44;27.96;56.93
52297;DHT22;38244;51.046;17.038;2022-07-23T12:10:36;27.68;57.69
52297;DHT22;38244;51.046;17.038;2022-07-23T12:13:09;27.58;57.31
52297;DHT22;38244;51.046;17.038;2022-07-23T12:15:49;27.53;57.36
52297;DHT22;38244;51.046;17.038;2022-07-23T12:18:20;27.53;57.84
52297;DHT22;38244;51.046;17.038;2022-07-23T12:20:50;27.51;57.97
52297;DHT22;38244;51.046;17.038;2022-07-23T12:23:19;27.54;58.80
52297;DHT22;38244;51.046;17.038;2022-07-23T12:25:47;27.67;57.47
52297;DHT22;38244;51.046;17.038;2022-07-23T12:28:30;27.84;57.80
52297;DHT22;38244;51.046;17.038;2022-07-23T12:30:58;28.08;56.66
52297;DHT22;38244;51.046;17.038;2022-07-23T12:33:38;28.27;56.78
52297;DHT22;38244;51.046;17.038;2022-07-23T12:36:03;28.58;56.59
52297;DHT22;38244;51.046;17.038;2022-07-23T12:38:40;28.89;56.91
52297;DHT22;38244;51.046;17.038;2022-07-23T12:41:07;29.23;56.30
52297;DHT22;38244;51.046;17.038;2022-07-23T12:43:45;29.52;54.26
52297;DHT22;38244;51.046;17.038;2022-07-23T12:48:53;29.91;52.91
52297;DHT22;38244;51.046;17.038;2022-07-23T12:51:22;30.09;52.25
52297;DHT22;38244;51.046;17.038;2022-07-23T12:54:08;30.26;52.63
52297;DHT22;38244;51.046;17.038;2022-07-23T12:56:37;30.41;51.23
52297;DHT22;38244;51.046;17.038;2022-07-23T12:59:14;30.45;51.54
52297;DHT22;38244;51.046;17.038;2022-07-23T13:01:44;30.44;52.18
52297;DHT22;38244;51.046;17.038;2022-07-23T13:04:18;30.39;53.12
52297;DHT22;38244;51.046;17.038;2022-07-23T13:06:48;30.35;52.52
52297;DHT22;38244;51.046;17.038;2022-07-23T13:09:27;30.31;52.45
52297;DHT22;38244;51.046;17.038;2022-07-23T13:11:55;30.35;52.30
52297;DHT22;38244;51.046;17.038;2022-07-23T13:14:22;30.44;52.69
52297;DHT22;38244;51.046;17.038;2022-07-23T13:16:50;30.54;51.55
52297;DHT22;38244;51.046;17.038;2022-07-23T13:19:17;30.62;51.74
52297;DHT22;38244;51.046;17.038;2022-07-23T13:21:44;30.72;52.26
52297;DHT22;38244;51.046;17.038;2022-07-23T13:24:15;30.79;51.21
52297;DHT22;38244;51.046;17.038;2022-07-23T13:26:41;30.80;49.95
52297;DHT22;38244;51.046;17.038;2022-07-23T13:29:08;30.82;49.83
52297;DHT22;38244;51.046;17.038;2022-07-23T13:31:38;30.83;48.26
52297;DHT22;38244;51.046;17.038;2022-07-23T13:34:05;30.87;48.90
52297;DHT22;38244;51.046;17.038;2022-07-23T13:36:32;30.89;49.90
52297;DHT22;38244;51.046;17.038;2022-07-23T13:39:03;30.91;49.16
52297;DHT22;38244;51.046;17.038;2022-07-23T13:41:26;30.96;47.38
52297;DHT22;38244;51.046;17.038;2022-07-23T13:43:52;30.98;46.52
52297;DHT22;38244;51.046;17.038;2022-07-23T13:46:18;30.96;45.59
52297;DHT22;38244;51.046;17.038;2022-07-23T13:48:45;30.94;44.96
52297;DHT22;38244;51.046;17.038;2022-07-23T13:51:11;30.96;45.18
52297;DHT22;38244;51.046;17.038;2022-07-23T13:53:38;31.04;45.16
52297;DHT22;38244;51.046;17.038;2022-07-23T13:56:04;31.16;45.26
52297;DHT22;38244;51.046;17.038;2022-07-23T13:58:31;31.37;44.86
52297;DHT22;38244;51.046;17.038;2022-07-23T14:00:57;31.50;44.16
52297;DHT22;38244;51.046;17.038;2022-07-23T14:03:23;31.75;44.24
52297;DHT22;38244;51.046;17.038;2022-07-23T14:05:51;31.96;44.29
52297;DHT22;38244;51.046;17.038;2022-07-23T14:08:18;32.10;43.35
52297;DHT22;38244;51.046;17.038;2022-07-23T14:10:45;32.30;43.00
52297;DHT22;38244;51.046;17.038;2022-07-23T14:13:11;32.39;42.36
52297;DHT22;38244;51.046;17.038;2022-07-23T14:15:37;32.45;42.34
52297;DHT22;38244;51.046;17.038;2022-07-23T14:18:06;32.43;42.46
52297;DHT22;38244;51.046;17.038;2022-07-23T14:20:33;32.42;41.90
52297;DHT22;38244;51.046;17.038;2022-07-23T14:22:59;32.42;41.63
52297;DHT22;38244;51.046;17.038;2022-07-23T14:25:27;32.46;41.62
52297;DHT22;38244;51.046;17.038;2022-07-23T14:27:54;32.42;41.67
52297;DHT22;38244;51.046;17.038;2022-07-23T14:30:20;32.42;41.74
52297;DHT22;38244;51.046;17.038;2022-07-23T14:32:48;32.38;41.75
52297;DHT22;38244;51.046;17.038;2022-07-23T14:35:14;32.36;42.04
52297;DHT22;38244;51.046;17.038;2022-07-23T14:37:40;32.27;43.48
52297;DHT22;38244;51.046;17.038;2022-07-23T14:40:09;32.20;44.01
52297;DHT22;38244;51.046;17.038;2022-07-23T14:42:35;32.11;43.24
52297;DHT22;38244;51.046;17.038;2022-07-23T14:45:01;31.98;42.98
52297;DHT22;38244;51.046;17.038;2022-07-23T14:47:30;31.84;43.76
52297;DHT22;38244;51.046;17.038;2022-07-23T14:50:00;31.61;44.18
52297;DHT22;38244;51.046;17.038;2022-07-23T14:52:26;31.39;44.40
52297;DHT22;38244;51.046;17.038;2022-07-23T14:54:52;31.17;44.86
52297;DHT22;38244;51.046;17.038;2022-07-23T14:57:19;30.94;45.43
52297;DHT22;38244;51.046;17.038;2022-07-23T14:59:45;30.73;45.49
52297;DHT22;38244;51.046;17.038;2022-07-23T15:02:11;30.52;46.03
52297;DHT22;38244;51.046;17.038;2022-07-23T15:04:37;30.34;46.91
52297;DHT22;38244;51.046;17.038;2022-07-23T15:07:05;30.16;47.57
52297;DHT22;38244;51.046;17.038;2022-07-23T15:09:32;30.00;47.75
52297;DHT22;38244;51.046;17.038;2022-07-23T15:11:58;29.86;47.66
52297;DHT22;38244;51.046;17.038;2022-07-23T15:14:24;29.69;48.69
52297;DHT22;38244;51.046;17.038;2022-07-23T15:16:51;29.58;48.27
52297;DHT22;38244;51.046;17.038;2022-07-23T15:19:17;29.45;48.13
52297;DHT22;38244;51.046;17.038;2022-07-23T15:21:44;29.29;48.89
52297;DHT22;38244;51.046;17.038;2022-07-23T15:24:11;29.24;49.00
52297;DHT22;38244;51.046;17.038;2022-07-23T15:26:37;29.22;49.36
52297;DHT22;38244;51.046;17.038;2022-07-23T15:29:04;29.23;49.14
52297;DHT22;38244;51.046;17.038;2022-07-23T15:31:34;29.23;49.31
52297;DHT22;38244;51.046;17.038;2022-07-23T15:34:01;29.34;49.70
52297;DHT22;38244;51.046;17.038;2022-07-23T15:36:27;29.45;49.79
52297;DHT22;38244;51.046;17.038;2022-07-23T15:38:53;29.55;48.71
52297;DHT22;38244;51.046;17.038;2022-07-23T15:41:20;29.58;48.63
52297;DHT22;38244;51.046;17.038;2022-07-23T15:43:46;29.57;48.11
52297;DHT22;38244;51.046;17.038;2022-07-23T15:46:12;29.51;48.36
52297;DHT22;38244;51.046;17.038;2022-07-23T15:48:38;29.48;48.51
52297;DHT22;38244;51.046;17.038;2022-07-23T15:51:05;29.47;48.64
52297;DHT22;38244;51.046;17.038;2022-07-23T15:53:33;29.50;48.71
52297;DHT22;38244;51.046;17.038;2022-07-23T15:56:02;29.47;48.75
52297;DHT22;38244;51.046;17.038;2022-07-23T15:58:28;29.42;49.40
52297;DHT22;38244;51.046;17.038;2022-07-23T16:00:55;29.31;49.36
52297;DHT22;38244;51.046;17.038;2022-07-23T16:03:21;29.22;49.55
52297;DHT22;38244;51.046;17.038;2022-07-23T16:05:47;29.10;50.02
52297;DHT22;38244;51.046;17.038;2022-07-23T16:08:14;28.95;50.59
52297;DHT22;38244;51.046;17.038;2022-07-23T16:10:40;28.78;51.11
52297;DHT22;38244;51.046;17.038;2022-07-23T16:13:06;28.57;51.04
52297;DHT22;38244;51.046;17.038;2022-07-23T16:15:33;28.41;51.46
52297;DHT22;38244;51.046;17.038;2022-07-23T16:18:00;28.26;52.05
52297;DHT22;38244;51.046;17.038;2022-07-23T16:20:26;28.09;52.34
52297;DHT22;38244;51.046;17.038;2022-07-23T16:22:52;27.99;52.40
52297;DHT22;38244;51.046;17.038;2022-07-23T16:25:18;27.87;52.55
52297;DHT22;38244;51.046;17.038;2022-07-23T16:27:45;27.79;52.65
52297;DHT22;38244;51.046;17.038;2022-07-23T16:30:13;27.82;52.53
52297;DHT22;38244;51.046;17.038;2022-07-23T16:32:40;27.93;52.07
52297;DHT22;38244;51.046;17.038;2022-07-23T16:35:06;28.05;51.85
52297;DHT22;38244;51.046;17.038;2022-07-23T16:37:34;28.12;51.44
52297;DHT22;38244;51.046;17.038;2022-07-23T16:40:02;28.20;50.86
52297;DHT22;38244;51.046;17.038;2022-07-23T16:42:28;28.27;50.39